createdAt,value
2018-08-20T00:00:33.555Z,1009.18
2018-08-20T00:01:33.463Z,1009.19
2018-08-20T00:03:33.791Z,1009.20
2018-08-20T00:04:33.483Z,1009.18
2018-08-20T00:05:33.473Z,1009.23
2018-08-20T00:06:33.527Z,1009.18
2018-08-20T00:07:33.469Z,1009.23
2018-08-20T00:08:33.447Z,1009.23
2018-08-20T00:09:33.453Z,1009.21
2018-08-20T00:10:33.524Z,1009.22
2018-08-20T00:11:33.434Z,1009.22
2018-08-20T00:12:33.368Z,1009.21
2018-08-20T00:13:33.386Z,1009.28
2018-08-20T00:15:33.797Z,1009.23
2018-08-20T00:16:33.278Z,1009.23
2018-08-20T00:17:33.338Z,1009.20
2018-08-20T00:18:33.379Z,1009.18
2018-08-20T00:19:33.313Z,1009.20
2018-08-20T00:20:33.524Z,1009.19
2018-08-20T00:21:33.298Z,1009.17
2018-08-20T00:22:33.202Z,1009.17
2018-08-20T00:23:33.261Z,1009.14
2018-08-20T00:24:33.245Z,1009.13
2018-08-20T00:25:33.168Z,1009.09
2018-08-20T00:26:33.144Z,1009.05
2018-08-20T00:29:33.463Z,1009.11
2018-08-20T00:30:33.677Z,1009.07
2018-08-20T00:31:33.098Z,1009.09
2018-08-20T00:34:33.062Z,1009.07
2018-08-20T00:35:33.044Z,1009.07
2018-08-20T00:37:33.186Z,1009.02
2018-08-20T00:38:32.997Z,1009.03
2018-08-20T00:39:32.983Z,1009.01
2018-08-20T00:40:32.969Z,1009.01
2018-08-20T00:41:32.971Z,1009.02
2018-08-20T00:42:33.001Z,1009.00
2018-08-20T00:43:33.145Z,1008.98
2018-08-20T00:44:32.940Z,1008.99
2018-08-20T00:45:32.904Z,1008.98
2018-08-20T00:46:32.997Z,1008.94
2018-08-20T00:47:32.939Z,1008.97
2018-08-20T00:48:32.923Z,1008.95
2018-08-20T00:49:32.913Z,1008.91
2018-08-20T00:50:32.912Z,1008.90
2018-08-20T00:51:32.842Z,1008.92
2018-08-20T00:52:32.817Z,1008.89
2018-08-20T00:53:32.809Z,1008.87
2018-08-20T00:54:32.850Z,1008.88
2018-08-20T00:55:32.836Z,1008.86
2018-08-20T00:56:32.778Z,1008.87
2018-08-20T00:57:32.855Z,1008.90
2018-08-20T00:59:32.752Z,1008.88
2018-08-20T01:00:32.769Z,1008.91
2018-08-20T01:01:32.710Z,1008.94
2018-08-20T01:02:32.750Z,1008.94
2018-08-20T01:03:32.685Z,1008.97
2018-08-20T01:04:32.755Z,1008.91
2018-08-20T01:05:32.724Z,1008.89
2018-08-20T01:07:32.640Z,1008.88
2018-08-20T01:09:32.665Z,1008.87
2018-08-20T01:11:32.888Z,1008.85
2018-08-20T01:13:32.630Z,1008.85
2018-08-20T01:14:32.556Z,1008.84
2018-08-20T01:15:32.553Z,1008.85
2018-08-20T01:16:32.521Z,1008.84
2018-08-20T01:17:32.511Z,1008.84
2018-08-20T01:18:32.497Z,1008.84
2018-08-20T01:19:32.544Z,1008.82
2018-08-20T01:20:32.535Z,1008.82
2018-08-20T01:21:32.559Z,1008.82
2018-08-20T01:22:32.511Z,1008.83
2018-08-20T01:24:32.720Z,1008.86
2018-08-20T01:25:32.460Z,1008.83
2018-08-20T01:27:32.385Z,1008.88
2018-08-20T01:28:32.380Z,1008.89
2018-08-20T01:29:32.471Z,1008.89
2018-08-20T01:30:32.348Z,1008.90
2018-08-20T01:32:32.380Z,1008.90
2018-08-20T01:34:32.306Z,1008.90
2018-08-20T01:35:32.355Z,1008.95
2018-08-20T01:36:32.272Z,1008.94
2018-08-20T01:37:32.259Z,1008.87
2018-08-20T01:40:32.225Z,1008.89
2018-08-20T01:43:32.489Z,1008.89
2018-08-20T01:45:32.211Z,1008.91
2018-08-20T01:46:32.346Z,1008.88
2018-08-20T01:47:32.207Z,1008.94
2018-08-20T01:48:32.187Z,1008.88
2018-08-20T01:49:32.113Z,1008.87
2018-08-20T01:50:32.176Z,1008.85
2018-08-20T01:51:32.247Z,1008.87
2018-08-20T01:52:32.077Z,1008.86
2018-08-20T01:54:32.050Z,1008.82
2018-08-20T01:55:32.039Z,1008.88
2018-08-20T01:56:32.027Z,1008.82
2018-08-20T01:57:32.067Z,1008.84
2018-08-20T02:00:32.066Z,1008.80
2018-08-20T02:01:32.024Z,1008.81
2018-08-20T02:03:32.197Z,1008.75
2018-08-20T02:04:31.928Z,1008.74
2018-08-20T02:05:31.924Z,1008.70
2018-08-20T02:06:31.904Z,1008.67
2018-08-20T02:07:31.904Z,1008.67
2018-08-20T02:08:31.936Z,1008.70
2018-08-20T02:09:31.932Z,1008.66
2018-08-20T02:10:31.860Z,1008.74
2018-08-20T02:11:31.847Z,1008.72
2018-08-20T02:12:32.051Z,1008.70
2018-08-20T02:13:31.926Z,1008.68
2018-08-20T02:14:31.815Z,1008.68
2018-08-20T02:15:31.936Z,1008.69
2018-08-20T02:16:31.842Z,1008.68
2018-08-20T02:17:31.779Z,1008.69
2018-08-20T02:18:31.762Z,1008.71
2018-08-20T02:19:31.811Z,1008.68
2018-08-20T02:20:31.753Z,1008.69
2018-08-20T02:22:31.738Z,1008.63
2018-08-20T02:23:31.710Z,1008.65
2018-08-20T02:25:31.680Z,1008.62
2018-08-20T02:26:31.670Z,1008.62
2018-08-20T02:27:31.809Z,1008.61
2018-08-20T02:28:31.744Z,1008.60
2018-08-20T02:29:31.637Z,1008.56
2018-08-20T02:30:31.626Z,1008.61
2018-08-20T02:31:31.670Z,1008.62
2018-08-20T02:33:31.659Z,1008.58
2018-08-20T02:34:31.575Z,1008.59
2018-08-20T02:35:31.803Z,1008.53
2018-08-20T02:36:31.550Z,1008.58
2018-08-20T02:37:31.868Z,1008.56
2018-08-20T02:38:31.539Z,1008.57
2018-08-20T02:39:31.577Z,1008.61
2018-08-20T02:40:31.510Z,1008.62
2018-08-20T02:41:31.576Z,1008.61
2018-08-20T02:42:31.526Z,1008.60
2018-08-20T02:43:31.469Z,1008.61
2018-08-20T02:44:31.500Z,1008.59
2018-08-20T02:45:31.483Z,1008.65
2018-08-20T02:46:31.821Z,1008.62
2018-08-20T02:47:31.428Z,1008.59
2018-08-20T02:48:31.411Z,1008.62
2018-08-20T02:49:31.396Z,1008.58
2018-08-20T02:51:31.413Z,1008.62
2018-08-20T02:52:31.346Z,1008.57
2018-08-20T02:53:31.338Z,1008.59
2018-08-20T02:54:31.324Z,1008.59
2018-08-20T02:55:31.407Z,1008.59
2018-08-20T02:56:31.415Z,1008.60
2018-08-20T02:57:31.662Z,1008.58
2018-08-20T02:58:31.388Z,1008.56
2018-08-20T02:59:31.270Z,1008.54
2018-08-20T03:01:31.257Z,1008.55
2018-08-20T03:02:31.341Z,1008.57
2018-08-20T03:03:31.283Z,1008.53
2018-08-20T03:04:31.288Z,1008.56
2018-08-20T03:05:31.279Z,1008.54
2018-08-20T03:06:31.191Z,1008.55
2018-08-20T03:07:31.180Z,1008.50
2018-08-20T03:08:31.160Z,1008.52
2018-08-20T03:09:31.219Z,1008.52
2018-08-20T03:10:31.152Z,1008.48
2018-08-20T03:11:31.230Z,1008.52
2018-08-20T03:12:31.219Z,1008.49
2018-08-20T03:14:31.086Z,1008.52
2018-08-20T03:15:31.192Z,1008.53
2018-08-20T03:16:31.165Z,1008.54
2018-08-20T03:17:31.170Z,1008.53
2018-08-20T03:18:31.046Z,1008.49
2018-08-20T03:19:31.023Z,1008.50
2018-08-20T03:20:31.008Z,1008.51
2018-08-20T03:21:31.057Z,1008.48
2018-08-20T03:23:31.145Z,1008.52
2018-08-20T03:25:30.976Z,1008.47
2018-08-20T03:26:30.937Z,1008.49
2018-08-20T03:28:30.914Z,1008.44
2018-08-20T03:30:30.909Z,1008.49
2018-08-20T03:31:30.882Z,1008.50
2018-08-20T03:32:30.981Z,1008.48
2018-08-20T03:33:30.906Z,1008.52
2018-08-20T03:34:30.841Z,1008.51
2018-08-20T03:36:30.818Z,1008.52
2018-08-20T03:37:30.811Z,1008.53
2018-08-20T03:38:30.801Z,1008.56
2018-08-20T03:39:30.833Z,1008.54
2018-08-20T03:41:30.757Z,1008.54
2018-08-20T03:42:30.741Z,1008.52
2018-08-20T03:44:31.025Z,1008.56
2018-08-20T03:45:32.181Z,1008.53
2018-08-20T03:46:30.697Z,1008.53
2018-08-20T03:47:30.692Z,1008.54
2018-08-20T03:48:30.673Z,1008.51
2018-08-20T03:51:30.784Z,1008.53
2018-08-20T03:52:30.628Z,1008.56
2018-08-20T03:53:30.614Z,1008.58
2018-08-20T03:54:31.128Z,1008.53
2018-08-20T03:55:30.584Z,1008.57
2018-08-20T03:56:30.581Z,1008.54
2018-08-20T03:57:30.619Z,1008.59
2018-08-20T03:58:30.661Z,1008.57
2018-08-20T03:59:30.535Z,1008.62
2018-08-20T04:01:30.687Z,1008.59
2018-08-20T04:02:30.566Z,1008.64
2018-08-20T04:03:30.790Z,1008.62
2018-08-20T04:04:30.544Z,1008.60
2018-08-20T04:06:30.455Z,1008.67
2018-08-20T04:07:30.605Z,1008.65
2018-08-20T04:08:30.444Z,1008.66
2018-08-20T04:09:30.488Z,1008.67
2018-08-20T04:10:30.461Z,1008.63
2018-08-20T04:11:30.396Z,1008.63
2018-08-20T04:13:30.364Z,1008.63
2018-08-20T04:14:30.553Z,1008.62
2018-08-20T04:15:30.416Z,1008.63
2018-08-20T04:17:30.512Z,1008.62
2018-08-20T04:18:30.317Z,1008.67
2018-08-20T04:19:30.348Z,1008.66
2018-08-20T04:20:30.482Z,1008.63
2018-08-20T04:21:30.322Z,1008.66
2018-08-20T04:23:30.296Z,1008.64
2018-08-20T04:24:30.228Z,1008.70
2018-08-20T04:25:30.921Z,1008.70
2018-08-20T04:26:30.205Z,1008.68
2018-08-20T04:27:30.347Z,1008.64
2018-08-20T04:28:31.292Z,1008.63
2018-08-20T04:29:30.174Z,1008.62
2018-08-20T04:30:30.265Z,1008.57
2018-08-20T04:31:30.148Z,1008.58
2018-08-20T04:32:30.130Z,1008.64
2018-08-20T04:33:30.222Z,1008.65
2018-08-20T04:34:30.297Z,1008.64
2018-08-20T04:35:30.192Z,1008.65
2018-08-20T04:36:30.252Z,1008.65
2018-08-20T04:37:30.236Z,1008.59
2018-08-20T04:38:30.071Z,1008.62
2018-08-20T04:39:31.449Z,1008.66
2018-08-20T04:40:30.301Z,1008.59
2018-08-20T04:42:30.233Z,1008.62
2018-08-20T04:43:30.198Z,1008.62
2018-08-20T04:44:30.104Z,1008.61
2018-08-20T04:45:30.173Z,1008.56
2018-08-20T04:46:30.025Z,1008.63
2018-08-20T04:47:30.144Z,1008.60
2018-08-20T04:48:31.171Z,1008.59
2018-08-20T04:49:30.589Z,1008.59
2018-08-20T04:50:30.624Z,1008.56
2018-08-20T04:51:30.234Z,1008.54
2018-08-20T04:52:29.894Z,1008.54
2018-08-20T04:53:30.304Z,1008.54
2018-08-20T04:55:32.802Z,1008.53
2018-08-20T04:56:29.947Z,1008.53
2018-08-20T04:57:31.465Z,1008.56
2018-08-20T04:59:31.013Z,1008.55
2018-08-20T05:00:30.241Z,1008.56
2018-08-20T05:04:29.795Z,1008.54
2018-08-20T05:05:29.730Z,1008.56
2018-08-20T05:08:30.700Z,1008.55
2018-08-20T05:10:29.744Z,1008.59
2018-08-20T05:11:29.858Z,1008.59
2018-08-20T05:12:29.721Z,1008.65
2018-08-20T05:14:30.000Z,1008.65
2018-08-20T05:15:29.687Z,1008.61
2018-08-20T05:19:29.638Z,1008.61
2018-08-20T05:20:29.622Z,1008.60
2018-08-20T05:21:29.615Z,1008.60
2018-08-20T05:22:29.613Z,1008.61
2018-08-20T05:24:29.571Z,1008.63
2018-08-20T05:25:29.535Z,1008.68
2018-08-20T05:26:29.558Z,1008.65
2018-08-20T05:29:29.597Z,1008.65
2018-08-20T05:30:29.554Z,1008.65
2018-08-20T05:31:29.420Z,1008.60
2018-08-20T05:32:29.400Z,1008.63
2018-08-20T05:33:29.392Z,1008.65
2018-08-20T05:34:29.567Z,1008.64
2018-08-20T05:35:29.795Z,1008.65
2018-08-20T05:36:29.685Z,1008.65
2018-08-20T05:37:29.679Z,1008.70
2018-08-20T05:38:29.796Z,1008.68
2018-08-20T05:40:29.378Z,1008.68
2018-08-20T05:41:29.373Z,1008.78
2018-08-20T05:42:29.367Z,1008.68
2018-08-20T05:43:29.264Z,1008.69
2018-08-20T05:44:29.253Z,1008.73
2018-08-20T05:45:29.373Z,1008.71
2018-08-20T05:46:29.230Z,1008.76
2018-08-20T05:47:29.219Z,1008.80
2018-08-20T05:48:29.253Z,1008.80
2018-08-20T05:49:29.194Z,1008.82
2018-08-20T05:52:29.575Z,1008.83
2018-08-20T05:54:29.340Z,1008.90
2018-08-20T05:56:29.114Z,1008.92
2018-08-20T05:57:29.119Z,1008.96
2018-08-20T05:58:29.087Z,1008.94
2018-08-20T06:00:29.304Z,1008.92
2018-08-20T06:01:29.233Z,1008.96
2018-08-20T06:02:29.037Z,1009.04
2018-08-20T06:04:29.398Z,1008.98
2018-08-20T06:06:29.114Z,1008.98
2018-08-20T06:07:29.066Z,1009.02
2018-08-20T06:08:29.040Z,1009.00
2018-08-20T06:09:29.033Z,1009.05
2018-08-20T06:10:28.949Z,1009.08
2018-08-20T06:11:28.933Z,1009.05
2018-08-20T06:12:29.285Z,1009.06
2018-08-20T06:13:28.980Z,1009.12
2018-08-20T06:14:29.247Z,1009.09
2018-08-20T06:15:29.197Z,1009.09
2018-08-20T06:16:28.955Z,1009.16
2018-08-20T06:17:29.239Z,1009.17
2018-08-20T06:19:28.890Z,1009.22
2018-08-20T06:20:28.953Z,1009.23
2018-08-20T06:21:28.807Z,1009.19
2018-08-20T06:22:28.984Z,1009.27
2018-08-20T06:23:28.878Z,1009.22
2018-08-20T06:24:29.287Z,1009.25
2018-08-20T06:25:28.811Z,1009.23
2018-08-20T06:27:28.740Z,1009.28
2018-08-20T06:30:29.212Z,1009.27
2018-08-20T06:31:28.749Z,1009.28
2018-08-20T06:32:29.084Z,1009.28
2018-08-20T06:33:28.666Z,1009.29
2018-08-20T06:35:28.725Z,1009.29
2018-08-20T06:36:28.681Z,1009.32
2018-08-20T06:37:28.673Z,1009.28
2018-08-20T06:39:28.766Z,1009.35
2018-08-20T06:41:28.686Z,1009.32
2018-08-20T06:42:28.651Z,1009.34
2018-08-20T06:43:28.953Z,1009.31
2018-08-20T06:45:29.018Z,1009.36
2018-08-20T06:46:28.712Z,1009.29
2018-08-20T06:47:28.727Z,1009.40
2018-08-20T06:48:28.638Z,1009.36
2018-08-20T06:49:28.591Z,1009.35
2018-08-20T06:50:28.580Z,1009.31
2018-08-20T06:51:28.767Z,1009.35
2018-08-20T06:52:28.657Z,1009.38
2018-08-20T06:53:28.645Z,1009.38
2018-08-20T06:54:28.634Z,1009.36
2018-08-20T06:55:28.702Z,1009.30
2018-08-20T06:56:28.533Z,1009.37
2018-08-20T06:57:28.508Z,1009.34
2018-08-20T06:58:28.487Z,1009.35
2018-08-20T07:00:28.863Z,1009.46
2018-08-20T07:01:28.516Z,1009.40
2018-08-20T07:02:28.535Z,1009.42
2018-08-20T07:03:28.525Z,1009.39
2018-08-20T07:04:28.520Z,1009.40
2018-08-20T07:05:28.442Z,1009.44
2018-08-20T07:06:28.505Z,1009.38
2018-08-20T07:07:28.381Z,1009.40
2018-08-20T07:08:28.406Z,1009.48
2018-08-20T07:09:28.441Z,1009.43
2018-08-20T07:10:28.447Z,1009.50
2018-08-20T07:11:28.337Z,1009.49
2018-08-20T07:12:28.324Z,1009.46
2018-08-20T07:13:28.311Z,1009.50
2018-08-20T07:14:28.301Z,1009.46
2018-08-20T07:17:28.584Z,1009.51
2018-08-20T07:18:28.264Z,1009.50
2018-08-20T07:20:28.306Z,1009.51
2018-08-20T07:21:28.677Z,1009.57
2018-08-20T07:22:28.258Z,1009.55
2018-08-20T07:23:28.233Z,1009.63
2018-08-20T07:24:28.191Z,1009.54
2018-08-20T07:27:28.374Z,1009.56
2018-08-20T07:28:28.231Z,1009.59
2018-08-20T07:29:29.641Z,1009.60
2018-08-20T07:31:28.205Z,1009.65
2018-08-20T07:33:28.032Z,1009.73
2018-08-20T07:37:28.316Z,1009.71
2018-08-20T07:38:28.225Z,1009.71
2018-08-20T07:39:28.272Z,1009.68
2018-08-20T07:40:28.119Z,1009.71
2018-08-20T07:41:27.983Z,1009.73
2018-08-20T07:42:28.012Z,1009.74
2018-08-20T07:43:27.866Z,1009.97
2018-08-20T07:45:27.973Z,1009.80
2018-08-20T07:46:27.914Z,1009.81
2018-08-20T07:47:27.906Z,1009.76
2018-08-20T07:48:27.833Z,1009.84
2018-08-20T07:49:27.836Z,1009.83
2018-08-20T07:50:27.794Z,1009.78
2018-08-20T07:51:27.827Z,1009.78
2018-08-20T07:52:27.852Z,1009.79
2018-08-20T07:54:27.825Z,1009.75
2018-08-20T07:56:28.103Z,1009.74
2018-08-20T07:57:27.890Z,1009.75
2018-08-20T07:58:27.788Z,1009.71
2018-08-20T07:59:27.774Z,1009.78
2018-08-20T08:00:27.682Z,1009.79
2018-08-20T08:02:28.053Z,1009.80
2018-08-20T08:03:42.720Z,1009.77
2018-08-20T08:04:27.734Z,1009.80
2018-08-20T08:05:27.625Z,1009.82
2018-08-20T08:07:27.682Z,1009.81
2018-08-20T08:08:27.993Z,1009.79
2018-08-20T08:09:27.686Z,1009.73
2018-08-20T08:10:27.654Z,1009.82
2018-08-20T08:11:27.636Z,1009.79
2018-08-20T08:12:27.546Z,1009.80
2018-08-20T08:13:27.537Z,1009.80
2018-08-20T08:14:27.626Z,1009.82
2018-08-20T08:15:27.586Z,1009.85
2018-08-20T08:16:27.503Z,1009.78
2018-08-20T08:17:27.556Z,1009.81
2018-08-20T08:19:27.869Z,1009.88
2018-08-20T08:21:27.584Z,1009.82
2018-08-20T08:22:27.448Z,1009.81
2018-08-20T08:23:27.507Z,1009.85
2018-08-20T08:25:27.419Z,1009.85
2018-08-20T08:27:27.480Z,1009.86
2018-08-20T08:29:27.444Z,1009.90
2018-08-20T08:30:27.433Z,1009.86
2018-08-20T08:32:27.453Z,1010.02
2018-08-20T08:33:27.499Z,1010.01
2018-08-20T08:34:27.389Z,1010.01
2018-08-20T08:35:27.384Z,1010.02
2018-08-20T08:37:27.276Z,1010.03
2018-08-20T08:38:27.349Z,1010.07
2018-08-20T08:40:27.377Z,1010.05
2018-08-20T08:41:27.247Z,1010.10
2018-08-20T08:42:27.222Z,1010.09
2018-08-20T08:43:27.303Z,1010.11
2018-08-20T08:44:27.199Z,1010.12
2018-08-20T08:45:27.198Z,1010.09
2018-08-20T08:46:27.229Z,1010.10
2018-08-20T08:47:27.165Z,1010.12
2018-08-20T08:49:27.162Z,1010.12
2018-08-20T08:50:27.226Z,1010.13
2018-08-20T08:52:27.159Z,1010.10
2018-08-20T08:53:27.187Z,1010.09
2018-08-20T08:54:27.587Z,1010.12
2018-08-20T08:55:27.470Z,1010.15
2018-08-20T08:56:27.125Z,1010.16
2018-08-20T08:57:27.509Z,1010.12
2018-08-20T08:58:27.182Z,1010.19
2018-08-20T08:59:27.123Z,1010.16
2018-08-20T09:00:27.118Z,1010.15
2018-08-20T09:02:27.440Z,1010.15
2018-08-20T09:03:27.080Z,1010.20
2018-08-20T09:04:27.103Z,1010.17
2018-08-20T09:05:27.063Z,1010.21
2018-08-20T09:06:27.052Z,1010.27
2018-08-20T09:07:27.024Z,1010.24
2018-08-20T09:08:26.941Z,1010.18
2018-08-20T09:09:26.926Z,1010.15
2018-08-20T09:10:26.964Z,1010.15
2018-08-20T09:13:27.384Z,1010.13
2018-08-20T09:15:27.204Z,1010.20
2018-08-20T09:16:26.980Z,1010.14
2018-08-20T09:17:27.146Z,1010.19
2018-08-20T09:18:26.925Z,1010.31
2018-08-20T09:19:26.909Z,1010.28
2018-08-20T09:20:26.904Z,1010.30
2018-08-20T09:21:26.796Z,1010.31
2018-08-20T09:22:26.935Z,1010.33
2018-08-20T09:23:26.782Z,1010.34
2018-08-20T09:24:26.869Z,1010.36
2018-08-20T09:26:26.814Z,1010.40
2018-08-20T09:27:26.727Z,1010.43
2018-08-20T09:28:26.854Z,1010.39
2018-08-20T09:29:26.809Z,1010.40
2018-08-20T09:30:26.781Z,1010.35
2018-08-20T09:32:29.778Z,1010.35
2018-08-20T09:33:26.658Z,1010.37
2018-08-20T09:34:26.695Z,1010.43
2018-08-20T09:35:26.634Z,1010.41
2018-08-20T09:37:26.620Z,1010.41
2018-08-20T09:41:26.701Z,1010.40
2018-08-20T09:42:26.640Z,1010.48
2018-08-20T09:44:26.620Z,1010.43
2018-08-20T09:45:26.574Z,1010.43
2018-08-20T09:46:26.513Z,1010.47
2018-08-20T09:47:26.551Z,1010.43
2018-08-20T09:48:26.493Z,1010.48
2018-08-20T09:49:26.479Z,1010.42
2018-08-20T09:50:26.469Z,1010.51
2018-08-20T09:52:26.523Z,1010.50
2018-08-20T09:53:26.660Z,1010.53
2018-08-20T09:56:26.404Z,1010.57
2018-08-20T09:57:27.141Z,1010.62
2018-08-20T09:58:26.373Z,1010.62
2018-08-20T09:59:26.424Z,1010.59
2018-08-20T10:00:26.652Z,1010.64
2018-08-20T10:01:26.461Z,1010.62
2018-08-20T10:02:26.322Z,1010.64
2018-08-20T10:03:26.393Z,1010.59
2018-08-20T10:04:26.360Z,1010.63
2018-08-20T10:05:26.388Z,1010.65
2018-08-20T10:06:27.089Z,1010.65
2018-08-20T10:08:26.677Z,1010.62
2018-08-20T10:09:26.552Z,1010.62
2018-08-20T10:10:26.573Z,1010.65
2018-08-20T10:11:26.266Z,1010.64
2018-08-20T10:14:26.481Z,1010.67
2018-08-20T10:15:26.236Z,1010.63
2018-08-20T10:16:26.156Z,1010.65
2018-08-20T10:19:26.175Z,1010.72
2018-08-20T10:20:26.217Z,1010.73
2018-08-20T10:21:26.095Z,1010.74
2018-08-20T10:24:26.132Z,1010.78
2018-08-20T10:25:26.090Z,1010.67
2018-08-20T10:27:26.322Z,1010.68
2018-08-20T10:28:26.067Z,1010.65
2018-08-20T10:30:26.031Z,1010.64
2018-08-20T10:31:26.055Z,1010.59
2018-08-20T10:32:26.039Z,1010.62
2018-08-20T10:33:26.932Z,1010.64
2018-08-20T10:34:27.102Z,1010.68
2018-08-20T10:35:25.931Z,1010.70
2018-08-20T10:36:25.984Z,1010.66
2018-08-20T10:39:25.868Z,1010.74
2018-08-20T10:40:25.939Z,1010.78
2018-08-20T10:41:25.949Z,1010.80
2018-08-20T10:42:25.861Z,1010.68
2018-08-20T10:43:25.880Z,1010.66
2018-08-20T10:44:26.012Z,1010.67
2018-08-20T10:45:26.703Z,1010.68
2018-08-20T10:47:26.127Z,1010.72
2018-08-20T10:48:25.784Z,1010.71
2018-08-20T10:49:25.955Z,1010.69
2018-08-20T10:53:26.102Z,1010.70
2018-08-20T10:54:25.732Z,1010.72
2018-08-20T10:55:25.739Z,1010.71
2018-08-20T10:57:25.759Z,1010.90
2018-08-20T10:58:25.828Z,1011.00
2018-08-20T10:59:25.740Z,1010.88
2018-08-20T11:00:26.001Z,1010.77
2018-08-20T11:04:25.637Z,1010.72
2018-08-20T11:06:26.909Z,1010.71
2018-08-20T11:07:25.561Z,1010.72
2018-08-20T11:09:25.677Z,1010.91
2018-08-20T11:10:25.594Z,1010.85
2018-08-20T11:11:25.532Z,1010.70
2018-08-20T11:12:25.552Z,1010.80
2018-08-20T11:13:25.597Z,1010.73
2018-08-20T11:15:25.488Z,1010.79
2018-08-20T11:16:25.507Z,1010.87
2018-08-20T11:17:25.512Z,1010.93
2018-08-20T11:18:25.695Z,1010.95
2018-08-20T11:19:25.778Z,1011.02
2018-08-20T11:20:25.863Z,1010.91
2018-08-20T11:21:25.708Z,1010.84
2018-08-20T11:23:25.844Z,1010.67
2018-08-20T11:24:26.029Z,1010.68
2018-08-20T11:25:26.897Z,1010.69
2018-08-20T11:26:25.502Z,1010.67
2018-08-20T11:27:25.671Z,1010.66
2018-08-20T11:28:25.599Z,1010.66
2018-08-20T11:29:25.492Z,1010.66
2018-08-20T11:30:26.518Z,1010.67
2018-08-20T11:31:25.378Z,1010.65
2018-08-20T11:33:25.349Z,1010.67
2018-08-20T11:34:25.304Z,1010.68
2018-08-20T11:39:25.753Z,1010.68
2018-08-20T11:40:25.408Z,1010.69
2018-08-20T11:41:25.662Z,1010.70
2018-08-20T11:42:25.276Z,1010.69
2018-08-20T11:43:25.196Z,1010.72
2018-08-20T11:44:25.170Z,1010.69
2018-08-20T11:46:25.156Z,1010.70
2018-08-20T11:48:25.236Z,1010.75
2018-08-20T11:49:25.141Z,1010.74
2018-08-20T11:51:26.292Z,1010.79
2018-08-20T11:52:25.146Z,1010.81
2018-08-20T11:53:25.262Z,1010.79
2018-08-20T11:55:28.912Z,1010.83
2018-08-20T11:57:25.371Z,1010.93
2018-08-20T11:59:25.335Z,1010.88
2018-08-20T12:01:25.431Z,1010.88
2018-08-20T12:02:25.053Z,1010.87
2018-08-20T12:04:25.302Z,1010.88
2018-08-20T12:05:24.936Z,1010.80
2018-08-20T12:06:26.459Z,1010.86
2018-08-20T12:07:25.059Z,1010.91
2018-08-20T12:09:24.975Z,1010.92
2018-08-20T12:10:24.933Z,1010.94
2018-08-20T12:12:25.368Z,1011.22
2018-08-20T12:13:25.255Z,1011.00
2018-08-20T12:14:24.993Z,1010.97
2018-08-20T12:15:24.887Z,1010.96
2018-08-20T12:16:24.839Z,1011.13
2018-08-20T12:18:24.836Z,1010.99
2018-08-20T12:20:24.989Z,1010.98
2018-08-20T12:21:24.828Z,1011.04
2018-08-20T12:22:25.076Z,1011.14
2018-08-20T12:25:24.792Z,1011.20
2018-08-20T12:26:25.014Z,1010.97
2018-08-20T12:27:24.768Z,1011.09
2018-08-20T12:28:25.108Z,1011.13
2018-08-20T12:29:26.473Z,1011.11
2018-08-20T12:30:24.707Z,1011.14
2018-08-20T12:31:24.774Z,1010.98
2018-08-20T12:32:24.821Z,1010.95
2018-08-20T12:33:24.806Z,1010.91
2018-08-20T12:34:24.710Z,1010.90
2018-08-20T12:35:24.645Z,1011.07
2018-08-20T12:36:24.670Z,1011.07
2018-08-20T12:37:24.644Z,1011.06
2018-08-20T12:38:24.667Z,1010.97
2018-08-20T12:39:24.740Z,1011.05
2018-08-20T12:40:24.700Z,1011.14
2018-08-20T12:41:28.475Z,1011.13
2018-08-20T12:42:24.642Z,1011.12
2018-08-20T12:43:24.603Z,1011.22
2018-08-20T12:44:24.569Z,1011.10
2018-08-20T12:46:24.924Z,1010.98
2018-08-20T12:49:24.523Z,1011.06
2018-08-20T12:50:24.596Z,1011.13
2018-08-20T12:51:24.517Z,1011.03
2018-08-20T12:52:24.924Z,1011.01
2018-08-20T12:56:24.477Z,1011.09
2018-08-20T12:57:24.564Z,1011.23
2018-08-20T12:58:24.813Z,1011.18
2018-08-20T12:59:24.503Z,1011.33
2018-08-20T13:00:24.728Z,1011.13
2018-08-20T13:01:24.437Z,1011.28
2018-08-20T13:02:24.451Z,1011.14
2018-08-20T13:04:24.769Z,1011.04
2018-08-20T13:05:24.409Z,1011.10
2018-08-20T13:06:24.400Z,1011.37
2018-08-20T13:08:24.380Z,1011.18
2018-08-20T13:09:24.377Z,1011.20
2018-08-20T13:10:24.807Z,1011.22
2018-08-20T13:11:24.379Z,1011.42
2018-08-20T13:12:24.436Z,1011.14
2018-08-20T13:13:24.410Z,1011.06
2018-08-20T13:14:24.424Z,1011.03
2018-08-20T13:15:24.340Z,1011.12
2018-08-20T13:16:24.835Z,1011.04
2018-08-20T13:17:24.349Z,1011.26
2018-08-20T13:19:24.326Z,1011.19
2018-08-20T13:20:24.355Z,1011.14
2018-08-20T13:21:24.731Z,1011.08
2018-08-20T13:22:24.382Z,1010.98
2018-08-20T13:23:24.439Z,1010.92
2018-08-20T13:24:24.463Z,1010.91
2018-08-20T13:25:24.665Z,1010.96
2018-08-20T13:28:25.163Z,1010.86
2018-08-20T13:29:24.257Z,1010.92
2018-08-20T13:30:24.250Z,1010.83
2018-08-20T13:31:25.188Z,1010.81
2018-08-20T13:37:24.330Z,1010.81
2018-08-20T13:38:24.302Z,1010.80
2018-08-20T13:39:24.610Z,1010.78
2018-08-20T13:40:29.563Z,1010.81
2018-08-20T13:41:24.145Z,1010.79
2018-08-20T13:42:24.139Z,1010.78
2018-08-20T13:43:24.134Z,1010.83
2018-08-20T13:44:24.127Z,1010.83
2018-08-20T13:46:24.448Z,1010.81
2018-08-20T13:47:24.090Z,1010.81
2018-08-20T13:49:24.072Z,1010.84
2018-08-20T13:50:24.058Z,1010.85
2018-08-20T13:51:24.105Z,1010.84
2018-08-20T13:52:24.085Z,1010.89
2018-08-20T13:55:24.099Z,1010.87
2018-08-20T13:56:24.000Z,1010.93
2018-08-20T13:57:23.986Z,1010.99
2018-08-20T13:58:24.040Z,1010.99
2018-08-20T13:59:24.081Z,1010.96
2018-08-20T14:00:23.961Z,1010.97
2018-08-20T14:01:23.948Z,1010.98
2018-08-20T14:03:24.050Z,1010.94
2018-08-20T14:04:24.272Z,1010.98
2018-08-20T14:05:23.971Z,1010.94
2018-08-20T14:06:23.901Z,1010.95
2018-08-20T14:08:23.873Z,1010.97
2018-08-20T14:09:23.915Z,1010.94
2018-08-20T14:11:24.398Z,1011.00
2018-08-20T14:12:23.979Z,1010.96
2018-08-20T14:13:24.172Z,1010.96
2018-08-20T14:14:24.572Z,1010.96
2018-08-20T14:15:23.831Z,1010.94
2018-08-20T14:17:30.794Z,1010.96
2018-08-20T14:18:23.877Z,1010.95
2018-08-20T14:19:23.768Z,1010.97
2018-08-20T14:20:23.767Z,1010.96
2018-08-20T14:21:23.751Z,1010.97
2018-08-20T14:22:23.743Z,1011.02
2018-08-20T14:23:23.800Z,1010.94
2018-08-20T14:25:23.823Z,1010.92
2018-08-20T14:26:23.770Z,1010.90
2018-08-20T14:28:24.084Z,1010.93
2018-08-20T14:29:23.871Z,1010.93
2018-08-20T14:31:24.846Z,1010.92
2018-08-20T14:34:23.628Z,1010.92
2018-08-20T14:35:23.980Z,1010.94
2018-08-20T14:37:23.623Z,1010.99
2018-08-20T14:38:23.908Z,1010.99
2018-08-20T14:39:23.554Z,1010.98
2018-08-20T14:40:23.546Z,1010.98
2018-08-20T14:41:23.599Z,1011.03
2018-08-20T14:42:23.954Z,1010.93
2018-08-20T14:43:23.736Z,1010.93
2018-08-20T14:44:23.605Z,1010.97
2018-08-20T14:45:23.759Z,1010.93
2018-08-20T14:47:23.537Z,1011.00
2018-08-20T14:48:23.481Z,1010.95
2018-08-20T14:50:23.465Z,1010.96
2018-08-20T14:52:23.722Z,1010.98
2018-08-20T14:53:23.607Z,1010.94
2018-08-20T14:54:23.421Z,1010.98
2018-08-20T14:55:23.396Z,1010.99
2018-08-20T14:56:23.481Z,1010.97
2018-08-20T15:00:23.349Z,1011.03
2018-08-20T15:01:23.440Z,1011.07
2018-08-20T15:02:23.336Z,1011.03
2018-08-20T15:03:23.309Z,1011.06
2018-08-20T15:04:23.371Z,1011.08
2018-08-20T15:06:23.631Z,1011.14
2018-08-20T15:07:23.539Z,1011.11
2018-08-20T15:08:23.583Z,1011.15
2018-08-20T15:09:23.343Z,1011.11
2018-08-20T15:10:23.433Z,1011.10
2018-08-20T15:11:23.302Z,1011.13
2018-08-20T15:12:23.361Z,1011.11
2018-08-20T15:15:23.401Z,1011.08
2018-08-20T15:16:23.324Z,1011.10
2018-08-20T15:18:23.507Z,1011.10
2018-08-20T15:19:23.150Z,1011.10
2018-08-20T15:20:23.193Z,1011.09
2018-08-20T15:21:23.237Z,1011.10
2018-08-20T15:23:23.217Z,1011.11
2018-08-20T15:24:23.657Z,1011.13
2018-08-20T15:25:23.204Z,1011.14